createdAt,value
2018-08-28T00:01:02.934Z,7.40
2018-08-28T00:03:30.511Z,6.47
2018-08-28T00:05:57.864Z,6.92
2018-08-28T00:08:25.510Z,5.90
2018-08-28T00:10:53.110Z,7.53
2018-08-28T00:13:20.470Z,6.15
2018-08-28T00:15:47.836Z,6.37
2018-08-28T00:18:15.590Z,7.45
2018-08-28T00:20:43.066Z,6.90
2018-08-28T00:23:10.584Z,7.70
2018-08-28T00:25:38.493Z,7.95
2018-08-28T00:28:05.863Z,7.60
2018-08-28T00:30:33.311Z,7.95
2018-08-28T00:33:00.826Z,7.30
2018-08-28T00:35:28.589Z,7.42
2018-08-28T00:37:55.893Z,6.87
2018-08-28T00:40:23.260Z,7.87
2018-08-28T00:42:50.671Z,7.62
2018-08-28T00:45:18.483Z,8.55
2018-08-28T00:47:46.156Z,6.65
2018-08-28T00:50:13.792Z,7.00
2018-08-28T00:52:41.644Z,8.20
2018-08-28T00:55:09.106Z,7.55
2018-08-28T00:57:36.472Z,8.85
2018-08-28T01:00:03.903Z,7.35
2018-08-28T01:02:31.311Z,7.15
2018-08-28T01:04:58.822Z,7.83
2018-08-28T01:07:26.380Z,7.78
2018-08-28T01:09:53.952Z,7.58
2018-08-28T01:12:21.470Z,6.83
2018-08-28T01:14:49.455Z,7.85
2018-08-28T01:17:16.704Z,8.03
2018-08-28T01:19:44.367Z,7.62
2018-08-28T01:22:12.145Z,8.30
2018-08-28T01:24:39.509Z,8.13
2018-08-28T01:27:07.333Z,7.65
2018-08-28T01:29:34.905Z,6.47
2018-08-28T01:32:02.505Z,7.42
2018-08-28T01:34:30.225Z,7.67
2018-08-28T01:36:57.566Z,7.20
2018-08-28T01:39:25.142Z,6.78
2018-08-28T01:41:52.756Z,6.90
2018-08-28T01:44:20.094Z,7.67
2018-08-28T01:46:47.708Z,6.58
2018-08-28T01:49:15.759Z,5.90
2018-08-28T01:51:43.413Z,6.97
2018-08-28T01:54:10.947Z,6.50
2018-08-28T01:56:38.613Z,6.35
2018-08-28T01:59:06.145Z,6.42
2018-08-28T02:01:33.718Z,6.05
2018-08-28T02:04:01.582Z,6.70
2018-08-28T02:06:29.222Z,6.25
2018-08-28T02:08:56.795Z,6.42
2018-08-28T02:11:24.347Z,5.72
2018-08-28T02:13:51.669Z,5.40
2018-08-28T02:16:19.277Z,5.95
2018-08-28T02:18:46.691Z,6.65
2018-08-28T02:21:14.217Z,5.60
2018-08-28T02:23:41.500Z,6.05
2018-08-28T02:26:09.160Z,6.30
2018-08-28T02:28:36.788Z,6.08
2018-08-28T02:31:04.103Z,6.60
2018-08-28T02:33:31.583Z,6.22
2018-08-28T02:35:58.902Z,6.12
2018-08-28T02:38:26.725Z,6.22
2018-08-28T02:40:54.275Z,5.80
2018-08-28T02:43:21.795Z,5.85
2018-08-28T02:45:49.505Z,5.72
2018-08-28T02:48:16.898Z,5.30
2018-08-28T02:50:44.991Z,5.97
2018-08-28T02:53:12.312Z,5.00
2018-08-28T02:55:39.853Z,5.58
2018-08-28T02:58:07.410Z,5.37
2018-08-28T03:00:34.755Z,5.55
2018-08-28T03:03:02.669Z,5.00
2018-08-28T03:05:30.321Z,5.70
2018-08-28T03:07:58.476Z,6.72
2018-08-28T03:10:25.895Z,5.58
2018-08-28T03:12:53.196Z,5.55
2018-08-28T03:15:20.811Z,5.55
2018-08-28T03:17:48.356Z,5.75
2018-08-28T03:20:15.740Z,5.60
2018-08-28T03:22:43.112Z,4.70
2018-08-28T03:25:10.881Z,6.00
2018-08-28T03:27:38.467Z,5.90
2018-08-28T03:30:05.772Z,4.80
2018-08-28T03:32:33.159Z,5.75
2018-08-28T03:35:00.472Z,6.20
2018-08-28T03:37:27.773Z,5.53
2018-08-28T03:39:55.258Z,5.50
2018-08-28T03:42:22.570Z,5.42
2018-08-28T03:44:49.955Z,5.60
2018-08-28T03:47:17.520Z,5.70
2018-08-28T03:49:45.252Z,5.58
2018-08-28T03:52:12.880Z,4.50
2018-08-28T03:54:40.761Z,4.95
2018-08-28T03:57:08.147Z,5.55
2018-08-28T03:59:35.633Z,5.40
2018-08-28T04:02:03.229Z,5.25
2018-08-28T04:04:30.925Z,5.08
2018-08-28T04:06:58.505Z,4.80
2018-08-28T04:09:25.837Z,5.47
2018-08-28T04:11:53.218Z,5.90
2018-08-28T04:14:20.782Z,5.42
2018-08-28T04:16:48.327Z,5.35
2018-08-28T04:19:15.731Z,5.20
2018-08-28T04:21:43.064Z,4.95
2018-08-28T04:24:10.870Z,5.85
2018-08-28T04:26:38.219Z,5.42
2018-08-28T04:29:05.880Z,5.58
2018-08-28T04:31:33.254Z,5.20
2018-08-28T04:34:00.575Z,5.47
2018-08-28T04:36:27.869Z,5.67
2018-08-28T04:38:55.454Z,5.28
2018-08-28T04:41:23.255Z,6.08
2018-08-28T04:43:50.862Z,5.45
2018-08-28T04:46:18.213Z,5.20
2018-08-28T04:48:46.130Z,5.12
2018-08-28T04:51:14.136Z,5.05
2018-08-28T04:53:41.569Z,6.75
2018-08-28T04:56:09.131Z,6.50
2018-08-28T04:58:36.554Z,5.25
2018-08-28T05:01:03.890Z,5.30
2018-08-28T05:03:31.476Z,6.08
2018-08-28T05:05:59.236Z,5.78
2018-08-28T05:08:26.563Z,4.90
2018-08-28T05:10:53.952Z,5.55
2018-08-28T05:13:21.603Z,5.03
2018-08-28T05:15:48.890Z,5.87
2018-08-28T05:18:16.250Z,5.10
2018-08-28T05:20:43.631Z,5.75
2018-08-28T05:23:11.536Z,5.05
2018-08-28T05:25:39.146Z,4.63
2018-08-28T05:28:06.717Z,5.70
2018-08-28T05:30:34.216Z,6.03
2018-08-28T05:33:01.519Z,6.23
2018-08-28T05:35:28.804Z,5.50
2018-08-28T05:37:56.173Z,5.23
2018-08-28T05:40:23.515Z,5.07
2018-08-28T05:42:50.854Z,5.47
2018-08-28T05:45:18.716Z,6.07
2018-08-28T05:47:46.259Z,5.40
2018-08-28T05:50:13.816Z,5.13
2018-08-28T05:52:41.450Z,5.77
2018-08-28T05:55:08.769Z,4.90
2018-08-28T05:57:36.578Z,5.47
2018-08-28T06:00:04.223Z,5.30
2018-08-28T06:02:31.813Z,5.57
2018-08-28T06:04:59.129Z,5.27
2018-08-28T06:07:26.574Z,5.60
2018-08-28T06:09:53.891Z,5.50
2018-08-28T06:12:21.459Z,6.13
2018-08-28T06:14:49.039Z,5.77
2018-08-28T06:17:16.619Z,5.50
2018-08-28T06:19:44.224Z,6.00
2018-08-28T06:22:11.984Z,5.77
2018-08-28T06:24:39.275Z,5.50
2018-08-28T06:27:06.551Z,6.07
2018-08-28T06:29:33.913Z,5.60
2018-08-28T06:32:01.188Z,6.50
2018-08-28T06:34:28.494Z,6.07
2018-08-28T06:36:56.067Z,6.07
2018-08-28T06:39:23.421Z,6.00
2018-08-28T06:41:50.981Z,6.13
2018-08-28T06:44:18.551Z,5.47
2018-08-28T06:46:46.108Z,5.83
2018-08-28T06:49:13.491Z,6.00
2018-08-28T06:51:41.071Z,6.20
2018-08-28T06:54:08.883Z,6.03
2018-08-28T06:56:36.258Z,5.80
2018-08-28T06:59:03.654Z,6.27
2018-08-28T07:01:31.217Z,6.00
2018-08-28T07:03:59.168Z,6.87
2018-08-28T07:06:26.509Z,7.40
2018-08-28T07:08:54.033Z,5.90
2018-08-28T07:11:21.795Z,6.60
2018-08-28T07:13:49.097Z,5.73
2018-08-28T07:16:17.039Z,6.07
2018-08-28T07:18:44.402Z,5.67
2018-08-28T07:21:11.682Z,6.17
2018-08-28T07:23:39.249Z,5.73
2018-08-28T07:26:07.047Z,6.63
2018-08-28T07:28:34.315Z,5.60
2018-08-28T07:31:01.905Z,5.77
2018-08-28T07:33:29.471Z,6.13
2018-08-28T07:35:56.792Z,6.40
2018-08-28T07:38:24.336Z,6.40
2018-08-28T07:40:51.943Z,6.90
2018-08-28T07:43:19.251Z,6.47
2018-08-28T07:45:46.579Z,6.63
2018-08-28T07:55:12.006Z,6.43
2018-08-28T07:57:39.330Z,6.63
2018-08-28T08:00:18.378Z,5.40
2018-08-28T08:02:45.747Z,6.47
2018-08-28T08:05:13.380Z,5.90
2018-08-28T08:07:40.738Z,5.60
2018-08-28T08:10:08.362Z,5.97
2018-08-28T08:12:35.692Z,5.87
2018-08-28T08:15:03.245Z,6.53
2018-08-28T08:17:31.023Z,5.67
2018-08-28T08:19:58.331Z,5.50
2018-08-28T08:22:25.911Z,5.40
2018-08-28T08:24:53.502Z,5.70
2018-08-28T08:27:21.171Z,4.63
2018-08-28T08:29:48.618Z,5.70
2018-08-28T08:32:16.196Z,6.10
2018-08-28T08:34:43.891Z,5.57
2018-08-28T08:37:11.208Z,5.60
2018-08-28T08:39:38.857Z,5.90
2018-08-28T08:42:06.239Z,4.80
2018-08-28T08:44:33.828Z,5.40
2018-08-28T08:47:03.110Z,4.27
2018-08-28T08:49:30.822Z,5.60
2018-08-28T08:51:58.163Z,5.03
2018-08-28T08:54:25.987Z,5.60
2018-08-28T08:56:53.864Z,5.00
2018-08-28T08:59:21.316Z,4.97
2018-08-28T09:01:49.333Z,5.03
2018-08-28T09:04:16.635Z,6.17
2018-08-28T09:06:44.231Z,6.33
2018-08-28T09:09:11.549Z,5.57
2018-08-28T09:11:38.922Z,4.90
2018-08-28T09:14:06.718Z,5.47
2018-08-28T09:16:34.141Z,5.17
2018-08-28T09:19:02.837Z,5.30
2018-08-28T09:21:30.387Z,5.67
2018-08-28T09:23:58.044Z,5.13
2018-08-28T09:26:25.530Z,5.53
2018-08-28T09:28:53.004Z,5.20
2018-08-28T09:34:04.575Z,5.37
2018-08-28T09:36:32.031Z,6.20
2018-08-28T09:38:59.475Z,5.40
2018-08-28T09:41:26.958Z,5.93
2018-08-28T09:43:54.871Z,4.97
2018-08-28T09:46:22.506Z,8.40
2018-08-28T09:48:49.834Z,4.27
2018-08-28T09:51:17.206Z,4.40
2018-08-28T09:53:44.535Z,4.50
2018-08-28T09:56:12.374Z,4.87
2018-08-28T09:58:40.058Z,4.67
2018-08-28T10:01:12.823Z,5.17
2018-08-28T10:03:40.436Z,4.87
2018-08-28T10:06:07.772Z,5.00
2018-08-28T10:08:35.320Z,4.60
2018-08-28T10:11:02.771Z,4.77
2018-08-28T10:13:30.121Z,4.27
2018-08-28T10:15:57.476Z,5.10
2018-08-28T10:18:25.069Z,4.83
2018-08-28T10:20:52.800Z,5.20
2018-08-28T10:23:20.161Z,5.00
2018-08-28T10:25:48.191Z,5.00
2018-08-28T10:28:15.792Z,5.47
2018-08-28T10:30:43.139Z,5.43
2018-08-28T10:33:10.450Z,5.30
2018-08-28T10:35:38.036Z,4.60
2018-08-28T10:38:05.625Z,5.50
2018-08-28T10:40:32.899Z,5.30
2018-08-28T10:43:00.285Z,5.50
2018-08-28T10:45:27.613Z,5.40
2018-08-28T10:47:55.165Z,5.83
2018-08-28T10:50:22.697Z,5.90
2018-08-28T10:52:50.045Z,5.53
2018-08-28T10:55:17.582Z,4.73
2018-08-28T10:57:44.896Z,5.53
2018-08-28T11:00:12.814Z,5.23
2018-08-28T11:02:41.010Z,5.70
2018-08-28T11:05:09.810Z,5.20
2018-08-28T11:07:38.176Z,5.33
2018-08-28T11:10:07.646Z,6.03
2018-08-28T11:12:36.370Z,5.20
2018-08-28T11:15:06.520Z,6.10
2018-08-28T11:17:35.375Z,6.23
2018-08-28T11:20:03.154Z,5.83
2018-08-28T11:22:30.995Z,4.87
2018-08-28T11:25:01.201Z,6.30
2018-08-28T11:27:29.932Z,5.50
2018-08-28T11:29:57.841Z,5.37
2018-08-28T11:32:27.189Z,6.80
2018-08-28T11:34:54.635Z,6.37
2018-08-28T11:37:22.596Z,6.90
2018-08-28T11:39:49.899Z,5.90
2018-08-28T11:42:17.485Z,5.93
2018-08-28T11:44:44.822Z,6.00
2018-08-28T11:47:12.187Z,6.27
2018-08-28T11:49:39.732Z,5.40
2018-08-28T11:52:07.044Z,5.60
2018-08-28T11:54:34.707Z,5.80
2018-08-28T11:57:02.128Z,5.80
2018-08-28T11:59:29.806Z,5.20
2018-08-28T12:01:57.133Z,5.70
2018-08-28T12:04:24.810Z,5.67
2018-08-28T12:06:52.267Z,5.40
2018-08-28T12:09:19.527Z,5.80
2018-08-28T12:11:46.905Z,5.30
2018-08-28T12:14:14.200Z,5.70
2018-08-28T12:16:41.740Z,6.47
2018-08-28T12:19:09.311Z,5.60
2018-08-28T12:21:36.613Z,6.13
2018-08-28T12:24:06.000Z,5.87
2018-08-28T12:26:34.182Z,6.10
2018-08-28T12:29:01.723Z,6.10
2018-08-28T12:31:29.117Z,6.63
2018-08-28T12:33:57.102Z,6.07
2018-08-28T12:36:24.876Z,6.20
2018-08-28T12:38:52.401Z,5.67
2018-08-28T12:41:19.961Z,6.07
2018-08-28T12:43:47.295Z,5.83
2018-08-28T12:46:14.852Z,5.83
2018-08-28T12:48:42.191Z,5.97
2018-08-28T12:51:09.983Z,5.47
2018-08-28T12:53:37.558Z,5.63
2018-08-28T12:56:05.138Z,5.00
2018-08-28T12:58:33.258Z,6.10
2018-08-28T13:01:01.056Z,5.97
2018-08-28T13:03:28.365Z,5.73
2018-08-28T13:05:55.682Z,5.33
2018-08-28T13:08:23.090Z,5.83
2018-08-28T13:10:50.453Z,4.90
2018-08-28T13:13:17.894Z,5.87
2018-08-28T13:15:45.241Z,5.57
2018-08-28T13:18:12.527Z,5.60
2018-08-28T13:20:39.811Z,5.97
2018-08-28T13:23:07.387Z,6.50
2018-08-28T13:25:35.035Z,6.57
2018-08-28T13:28:02.571Z,5.80
2018-08-28T13:30:29.902Z,6.00
2018-08-28T13:32:57.244Z,6.47
2018-08-28T13:35:25.212Z,6.03
2018-08-28T13:37:53.099Z,6.70
2018-08-28T13:40:20.819Z,5.73
2018-08-28T13:42:48.296Z,5.80
2018-08-28T13:45:15.677Z,7.00
2018-08-28T13:47:43.022Z,6.80
2018-08-28T13:50:13.449Z,5.93
2018-08-28T13:52:48.041Z,6.43
2018-08-28T13:55:17.449Z,7.23
2018-08-28T13:57:46.735Z,6.43
2018-08-28T14:00:17.372Z,6.17
2018-08-28T14:02:45.324Z,6.70
2018-08-28T14:05:15.440Z,6.07
2018-08-28T14:07:44.154Z,6.00
2018-08-28T14:10:14.981Z,7.23
2018-08-28T14:12:45.205Z,6.10
2018-08-28T14:15:15.030Z,5.57
2018-08-28T14:17:42.755Z,5.90
2018-08-28T14:20:10.486Z,6.63
2018-08-28T14:22:37.910Z,5.80
2018-08-28T14:25:05.945Z,6.50
2018-08-28T14:27:33.220Z,6.10
2018-08-28T14:30:00.578Z,6.73
2018-08-28T14:32:27.980Z,6.97
2018-08-28T14:34:55.294Z,6.03
2018-08-28T14:37:22.851Z,6.70
2018-08-28T14:39:50.320Z,7.70
2018-08-28T14:42:17.874Z,7.13
2018-08-28T14:44:45.506Z,6.07
2018-08-28T14:47:13.440Z,6.87
2018-08-28T14:49:40.899Z,6.30
2018-08-28T14:52:08.220Z,8.03
2018-08-28T14:54:35.650Z,7.00
2018-08-28T14:57:02.949Z,6.83
2018-08-28T14:59:30.567Z,7.13
2018-08-28T15:01:58.483Z,6.70
2018-08-28T15:04:26.135Z,6.40
2018-08-28T15:06:54.303Z,6.77
2018-08-28T15:09:21.643Z,7.17
2018-08-28T15:11:48.973Z,6.77
2018-08-28T15:14:16.347Z,8.20
2018-08-28T15:16:43.859Z,7.77
2018-08-28T15:19:11.178Z,7.17
2018-08-28T15:21:38.581Z,6.67
2018-08-28T15:24:05.894Z,7.93
2018-08-28T15:26:33.183Z,6.77
2018-08-28T15:29:00.618Z,7.57
2018-08-28T15:31:28.058Z,7.97
2018-08-28T15:33:55.725Z,7.50
2018-08-28T15:36:23.060Z,7.37
2018-08-28T15:38:53.687Z,7.37
2018-08-28T15:41:25.289Z,7.57
2018-08-28T15:43:56.407Z,8.73
2018-08-28T15:46:27.396Z,7.30
2018-08-28T15:48:59.144Z,7.97
2018-08-28T15:51:33.071Z,7.80
2018-08-28T15:54:04.044Z,8.13
2018-08-28T15:56:35.984Z,8.20
2018-08-28T15:59:07.943Z,7.63
2018-08-28T16:01:38.866Z,7.70
2018-08-28T16:04:14.597Z,7.63
2018-08-28T16:06:43.709Z,7.97
2018-08-28T16:09:16.110Z,8.33
2018-08-28T16:11:45.199Z,8.30
2018-08-28T16:14:16.419Z,8.30
2018-08-28T16:16:47.403Z,8.40
2018-08-28T16:19:19.578Z,7.57
2018-08-28T16:21:53.743Z,7.40
2018-08-28T16:24:26.886Z,8.43
2018-08-28T16:26:55.272Z,8.07
2018-08-28T16:29:24.128Z,8.50
2018-08-28T16:31:52.690Z,8.83
2018-08-28T16:34:22.267Z,8.70
2018-08-28T16:36:51.495Z,9.03
2018-08-28T16:39:20.867Z,8.60
2018-08-28T16:41:50.404Z,8.33
2018-08-28T16:44:22.320Z,7.93
2018-08-28T16:46:52.385Z,8.37
2018-08-28T16:49:22.359Z,7.80
2018-08-28T16:51:52.058Z,8.00
2018-08-28T16:54:22.069Z,8.10
2018-08-28T16:56:53.281Z,9.00
2018-08-28T16:59:22.737Z,7.70
2018-08-28T17:01:51.198Z,8.00
2018-08-28T17:14:04.184Z,7.67
2018-08-28T17:16:31.516Z,10.90
2018-08-28T17:18:59.068Z,10.63
2018-08-28T17:21:27.110Z,9.23
2018-08-28T17:23:54.452Z,8.50
2018-08-28T17:26:21.775Z,8.53
2018-08-28T17:28:49.362Z,9.40
2018-08-28T17:31:16.717Z,10.73
2018-08-28T17:33:44.245Z,9.77
2018-08-28T17:36:11.644Z,9.60
2018-08-28T17:38:39.202Z,10.80
2018-08-28T17:41:06.748Z,11.57
2018-08-28T17:43:34.373Z,10.40
2018-08-28T17:46:02.146Z,10.50
2018-08-28T17:48:29.742Z,10.80
2018-08-28T17:50:57.322Z,9.43
2018-08-28T17:53:24.601Z,9.97
2018-08-28T17:55:52.305Z,10.00
2018-08-28T17:58:19.853Z,9.20
2018-08-28T18:00:53.836Z,10.90
2018-08-28T18:03:21.472Z,9.80
2018-08-28T18:05:50.027Z,9.83
2018-08-28T18:08:17.352Z,9.97
2018-08-28T18:10:44.844Z,10.80
2018-08-28T18:13:12.158Z,9.60
2018-08-28T18:15:39.544Z,8.00
2018-08-28T18:18:07.095Z,8.27
2018-08-28T18:20:34.465Z,8.53
2018-08-28T18:23:01.793Z,8.07
2018-08-28T18:25:29.195Z,7.33
2018-08-28T18:27:56.611Z,7.33
2018-08-28T18:30:23.933Z,7.33
2018-08-28T18:32:51.498Z,8.57
2018-08-28T18:35:18.889Z,7.17
2018-08-28T18:37:46.184Z,7.50
2018-08-28T18:40:13.810Z,7.50
2018-08-28T18:42:41.217Z,7.57
2018-08-28T18:45:08.641Z,7.83
2018-08-28T18:47:36.374Z,7.53
2018-08-28T18:50:04.202Z,6.93
2018-08-28T18:52:32.583Z,7.23
2018-08-28T18:54:59.963Z,7.03
2018-08-28T18:57:28.939Z,9.33
2018-08-28T18:59:56.561Z,9.50
2018-08-28T19:02:23.912Z,10.00
2018-08-28T19:04:51.783Z,10.90
2018-08-28T19:07:19.143Z,9.10
2018-08-28T19:09:46.694Z,10.17
2018-08-28T19:12:14.053Z,10.07
2018-08-28T19:14:41.446Z,8.77
2018-08-28T19:17:08.955Z,8.87
2018-08-28T19:19:36.642Z,9.80
2018-08-28T19:22:04.391Z,9.37
2018-08-28T19:24:31.782Z,9.60
2018-08-28T19:26:59.388Z,9.00
2018-08-28T19:29:26.897Z,8.70
2018-08-28T19:31:54.341Z,7.90
2018-08-28T19:34:22.598Z,9.20
2018-08-28T19:36:50.153Z,8.77
2018-08-28T19:39:17.488Z,8.90
2018-08-28T19:41:45.048Z,9.00
2018-08-28T19:44:12.929Z,8.47
2018-08-28T19:46:40.365Z,8.80
2018-08-28T19:49:07.893Z,9.00
2018-08-28T19:51:35.532Z,8.73
2018-08-28T19:54:03.504Z,9.10
2018-08-28T19:56:30.901Z,8.83
2018-08-28T19:58:58.464Z,8.60
2018-08-28T20:01:26.255Z,10.93
2018-08-28T20:03:54.687Z,8.00
2018-08-28T20:06:22.045Z,7.75
2018-08-28T20:08:49.394Z,8.27
2018-08-28T20:11:16.708Z,8.00
2018-08-28T20:16:18.197Z,7.77
2018-08-28T20:18:45.937Z,8.27
2018-08-28T20:21:13.744Z,8.00
2018-08-28T20:23:41.413Z,8.60
2018-08-28T20:26:09.094Z,8.07
2018-08-28T20:28:36.422Z,9.33
2018-08-28T20:31:03.765Z,8.23
2018-08-28T20:33:31.268Z,8.07
2018-08-28T20:35:58.673Z,9.40
2018-08-28T20:38:26.227Z,9.18
2018-08-28T20:40:53.887Z,8.10
2018-08-28T20:43:21.710Z,9.10
2018-08-28T20:45:49.061Z,8.63
2018-08-28T20:48:16.403Z,7.70
2018-08-28T20:50:44.406Z,7.85
2018-08-28T20:53:11.801Z,8.93
2018-08-28T20:55:39.198Z,8.35
2018-08-28T20:58:06.940Z,10.70
2018-08-28T21:00:35.937Z,8.97
2018-08-28T21:03:03.304Z,8.48
2018-08-28T21:05:31.060Z,8.08
2018-08-28T21:07:59.945Z,9.67
2018-08-28T21:10:27.674Z,8.25
2018-08-28T21:12:55.251Z,8.90
2018-08-28T21:15:22.851Z,7.40
2018-08-28T21:17:51.788Z,8.03
2018-08-28T21:20:20.381Z,8.48
2018-08-28T21:22:50.338Z,8.00
2018-08-28T21:25:18.282Z,7.80
2018-08-28T21:27:45.671Z,8.68
2018-08-28T21:30:13.423Z,8.85
2018-08-28T21:32:40.751Z,8.23
2018-08-28T21:35:08.100Z,7.90
2018-08-28T21:37:36.230Z,7.03
2018-08-28T21:40:06.135Z,8.10
2018-08-28T21:42:33.771Z,9.35
2018-08-28T21:45:01.343Z,9.55
2018-08-28T21:47:30.839Z,10.23
2018-08-28T21:50:01.642Z,8.15
2018-08-28T21:52:31.529Z,9.13
2018-08-28T21:54:59.024Z,9.18
2018-08-28T21:57:28.855Z,8.85
2018-08-28T21:59:56.383Z,8.73
2018-08-28T22:02:23.801Z,8.03
2018-08-28T22:04:51.649Z,8.80
2018-08-28T22:07:24.670Z,9.13
2018-08-28T22:09:52.651Z,7.62
2018-08-28T22:12:20.280Z,8.40
2018-08-28T22:14:47.635Z,8.10
2018-08-28T22:17:14.955Z,8.60
2018-08-28T22:19:42.282Z,9.15
2018-08-28T22:22:09.827Z,8.83
2018-08-28T22:24:37.165Z,8.90
2018-08-28T22:27:04.999Z,8.18
2018-08-28T22:29:32.376Z,8.48
2018-08-28T22:31:59.764Z,9.88
2018-08-28T22:34:27.088Z,8.33
2018-08-28T22:36:54.665Z,8.88
2018-08-28T22:39:22.467Z,8.70
2018-08-28T22:41:50.089Z,9.33
2018-08-28T22:44:17.379Z,9.18
2018-08-28T22:46:44.721Z,9.80
2018-08-28T22:49:12.254Z,8.88
2018-08-28T22:51:39.866Z,9.33
2018-08-28T22:54:07.237Z,8.95
2018-08-28T22:56:34.611Z,9.25
2018-08-28T22:59:01.951Z,8.73
2018-08-28T23:01:29.646Z,8.93
2018-08-28T23:03:57.452Z,9.75
2018-08-28T23:06:24.759Z,9.10
2018-08-28T23:08:52.647Z,9.00
2018-08-28T23:11:20.187Z,9.90
2018-08-28T23:13:47.745Z,8.43
2018-08-28T23:16:15.461Z,9.03
2018-08-28T23:18:43.302Z,9.23
2018-08-28T23:21:10.630Z,9.78
2018-08-28T23:23:38.174Z,8.80
2018-08-28T23:26:05.544Z,8.78
2018-08-28T23:28:33.093Z,9.53
2018-08-28T23:31:00.785Z,8.75
2018-08-28T23:33:28.579Z,9.70
2018-08-28T23:35:56.234Z,9.80
2018-08-28T23:38:24.131Z,9.15
2018-08-28T23:40:51.447Z,10.50
2018-08-28T23:43:18.767Z,9.28
2018-08-28T23:45:46.339Z,10.68
2018-08-28T23:48:13.679Z,10.08
2018-08-28T23:50:41.006Z,9.60
2018-08-28T23:53:08.571Z,8.48
2018-08-28T23:55:36.192Z,9.23
2018-08-28T23:58:03.940Z,9.10
